Time;durP1;ratioP1;P1;durP2;ratioP2;P2;SDS_P1;SDS_P2;PMS_P1;PMS_P2;Temp;Humidity;BMP_temperature;BMP_pressure;BME280_temperature;BME280_humidity;BME280_pressure;Samples;Min_cycle;Max_cycle;Signal;HPM_P1;HPM_P2
2022/09/23 00:02:00;;;;;;;1.73;1.33;;;;;;;;;;4997672;28;20288;-54
2022/09/23 00:04:28;;;;;;;1.90;1.10;;;;;;;;;;5000277;28;20192;-56
2022/09/23 00:06:55;;;;;;;1.93;1.30;;;;;;;;;;5003005;28;20307;-59
2022/09/23 00:09:21;;;;;;;1.90;1.40;;;;;;;;;;5003040;28;20231;-58
2022/09/23 00:11:47;;;;;;;1.93;1.33;;;;;;;;;;4979871;28;20228;-57
2022/09/23 00:14:14;;;;;;;2.63;1.20;;;;;;;;;;4979659;28;20259;-57
2022/09/23 00:16:40;;;;;;;2.17;1.20;;;;;;;;;;4997921;28;20719;-57
2022/09/23 00:19:07;;;;;;;3.30;1.50;;;;;;;;;;5000766;28;20203;-59
2022/09/23 00:21:33;;;;;;;1.87;1.23;;;;;;;;;;5001311;28;20226;-57
2022/09/23 00:24:00;;;;;;;2.00;1.40;;;;;;;;;;5005070;28;20248;-57
2022/09/23 00:26:26;;;;;;;3.70;1.50;;;;;;;;;;4981825;28;20280;-57
2022/09/23 00:28:53;;;;;;;1.37;1.27;;;;;;;;;;4979330;28;20192;-53
2022/09/23 00:31:22;;;;;;;2.13;1.40;;;;;;;;;;5005907;28;20243;-55
2022/09/23 00:33:56;;;;;;;2.17;1.60;;;;;;;;;;5000387;28;20266;-58
2022/09/23 00:36:24;;;;;;;2.17;1.30;;;;;;;;;;4995969;28;20227;-56
2022/09/23 00:38:50;;;;;;;1.40;1.20;;;;;;;;;;4994354;28;20279;-55
2022/09/23 00:41:17;;;;;;;1.90;1.60;;;;;;;;;;4995397;28;20228;-57
2022/09/23 00:46:26;;;;;;;1.40;1.07;;;;;;;;;;5472411;23;20717;-52
2022/09/23 00:49:08;;;;;;;2.07;1.23;;;;;;;;;;5021406;28;20196;-53
2022/09/23 00:51:42;;;;;;;2.73;1.30;;;;;;;;;;5026018;28;20205;-53
2022/09/23 00:54:09;;;;;;;1.97;1.20;;;;;;;;;;5008714;28;20742;-54
2022/09/23 00:56:37;;;;;;;1.40;1.20;;;;;;;;;;5023033;28;20968;-54
2022/09/23 00:59:05;;;;;;;2.33;1.30;;;;;;;;;;5025137;28;20286;-55
2022/09/23 01:01:32;;;;;;;1.50;1.30;;;;;;;;;;5022446;28;20223;-53
2022/09/23 01:03:58;;;;;;;2.00;1.37;;;;;;;;;;5023641;28;20230;-52
2022/09/23 01:06:25;;;;;;;1.40;1.30;;;;;;;;;;5019132;28;20227;-53
2022/09/23 01:08:51;;;;;;;1.40;1.03;;;;;;;;;;5025142;28;20278;-54
2022/09/23 01:11:39;;;;;;;1.13;1.03;;;;;;;;;;5024690;28;20283;-53
2022/09/23 01:14:33;;;;;;;1.70;1.37;;;;;;;;;;5024240;28;20290;-52
2022/09/23 01:17:08;;;;;;;2.13;1.27;;;;;;;;;;5008026;28;20303;-52
2022/09/23 01:20:07;;;;;;;1.80;1.10;;;;;;;;;;5006292;28;20225;-55
2022/09/23 01:23:13;;;;;;;1.20;1.00;;;;;;;;;;5003919;28;20210;-52
2022/09/23 01:26:02;;;;;;;1.30;1.13;;;;;;;;;;4977667;28;20303;-55
2022/09/23 01:29:01;;;;;;;1.50;1.20;;;;;;;;;;5024882;28;20215;-55
2022/09/23 01:31:47;;;;;;;1.83;1.20;;;;;;;;;;5024353;28;20383;-54
2022/09/23 01:34:34;;;;;;;1.23;1.13;;;;;;;;;;5007719;28;20232;-55
2022/09/23 01:37:10;;;;;;;1.40;1.30;;;;;;;;;;5023992;28;20294;-52
2022/09/23 01:39:50;;;;;;;2.13;1.63;;;;;;;;;;5004807;28;20234;-52
2022/09/23 01:42:28;;;;;;;3.30;1.40;;;;;;;;;;5007493;28;20311;-52
2022/09/23 01:44:59;;;;;;;1.53;1.13;;;;;;;;;;5006354;28;20199;-54
2022/09/23 01:47:29;;;;;;;1.50;1.27;;;;;;;;;;5007995;28;20297;-56
2022/09/23 01:50:55;;;;;;;1.50;1.10;;;;;;;;;;5005873;28;20829;-55
2022/09/23 01:53:00;;;;;;;1.43;1.33;;;;;;;;;;5024669;28;20204;-53
2022/09/23 01:55:33;;;;;;;2.07;1.40;;;;;;;;;;4995286;28;20298;-52
2022/09/23 01:58:14;;;;;;;1.53;1.30;;;;;;;;;;5010416;28;20349;-53
2022/09/23 02:00:48;;;;;;;1.50;1.20;;;;;;;;;;5025653;28;20203;-52
2022/09/23 02:03:26;;;;;;;1.97;1.30;;;;;;;;;;5023094;28;20210;-53
2022/09/23 02:05:59;;;;;;;1.57;1.37;;;;;;;;;;5024688;28;20242;-52
2022/09/23 02:08:34;;;;;;;1.60;1.10;;;;;;;;;;5010859;28;20306;-53
2022/09/23 02:11:06;;;;;;;2.33;1.10;;;;;;;;;;5011679;28;20257;-55
2022/09/23 02:13:51;;;;;;;1.10;1.00;;;;;;;;;;5009911;28;20234;-55
2022/09/23 02:16:39;;;;;;;1.33;1.17;;;;;;;;;;5022009;28;20306;-53
2022/09/23 02:19:10;;;;;;;1.10;1.00;;;;;;;;;;5013416;28;20258;-52
2022/09/23 02:21:43;;;;;;;2.00;1.20;;;;;;;;;;5007092;28;20207;-55
2022/09/23 02:24:13;;;;;;;1.37;1.17;;;;;;;;;;5009167;28;20619;-54
2022/09/23 02:26:51;;;;;;;1.07;0.97;;;;;;;;;;5008611;28;20710;-55
2022/09/23 02:29:26;;;;;;;2.67;1.57;;;;;;;;;;5009399;28;20211;-55
2022/09/23 02:32:02;;;;;;;1.37;1.10;;;;;;;;;;5010015;28;20636;-55
2022/09/23 02:34:34;;;;;;;1.43;1.17;;;;;;;;;;5009779;28;20286;-52
2022/09/23 02:37:22;;;;;;;1.27;1.17;;;;;;;;;;5028852;28;20302;-52
2022/09/23 02:39:59;;;;;;;1.47;1.33;;;;;;;;;;5024723;28;20636;-56
2022/09/23 02:42:39;;;;;;;1.20;1.10;;;;;;;;;;5006858;28;20462;-56
2022/09/23 02:45:05;;;;;;;1.40;1.20;;;;;;;;;;5008239;28;20215;-52
2022/09/23 02:47:33;;;;;;;1.47;1.17;;;;;;;;;;5011439;28;20472;-56
2022/09/23 02:50:00;;;;;;;1.63;1.13;;;;;;;;;;5008135;28;20295;-53
2022/09/23 02:52:27;;;;;;;1.70;1.00;;;;;;;;;;5026780;28;20286;-52
2022/09/23 02:54:53;;;;;;;2.70;1.30;;;;;;;;;;5028047;28;20298;-52
2022/09/23 02:57:20;;;;;;;1.50;1.23;;;;;;;;;;5020056;28;20292;-55
2022/09/23 02:59:46;;;;;;;1.83;1.20;;;;;;;;;;5007235;28;20557;-54
2022/09/23 03:02:33;;;;;;;1.20;1.10;;;;;;;;;;5025310;28;20629;-55
2022/09/23 03:05:22;;;;;;;2.10;1.33;;;;;;;;;;5008049;28;20235;-52
2022/09/23 03:08:11;;;;;;;1.47;1.10;;;;;;;;;;5007059;28;20773;-53
2022/09/23 03:10:54;;;;;;;1.40;1.13;;;;;;;;;;5023056;28;20597;-54
2022/09/23 03:13:21;;;;;;;1.43;1.20;;;;;;;;;;5007104;28;20279;-53
2022/09/23 03:16:01;;;;;;;1.47;1.13;;;;;;;;;;5026581;28;20231;-55
2022/09/23 03:18:38;;;;;;;1.20;1.10;;;;;;;;;;5010747;28;20204;-54
2022/09/23 03:21:18;;;;;;;1.10;1.00;;;;;;;;;;5024645;28;20278;-52
2022/09/23 03:23:46;;;;;;;1.70;1.30;;;;;;;;;;5005631;28;20282;-54
2022/09/23 03:26:18;;;;;;;1.70;1.20;;;;;;;;;;5009750;28;20225;-55
2022/09/23 03:28:44;;;;;;;1.50;1.20;;;;;;;;;;5009422;28;20220;-55
2022/09/23 03:31:12;;;;;;;1.30;1.20;;;;;;;;;;5025822;28;20196;-56
2022/09/23 03:33:42;;;;;;;1.20;1.10;;;;;;;;;;5008563;28;20249;-55
2022/09/23 03:39:02;;;;;;;1.53;1.20;;;;;;;;;;5026482;28;20301;-55
2022/09/23 03:41:37;;;;;;;1.30;1.20;;;;;;;;;;5024957;28;20234;-57
2022/09/23 03:44:06;;;;;;;1.00;0.90;;;;;;;;;;5011447;28;20281;-56
2022/09/23 03:46:34;;;;;;;1.30;1.10;;;;;;;;;;5026606;28;20315;-55
2022/09/23 03:49:10;;;;;;;1.20;1.07;;;;;;;;;;5025689;28;20777;-55
2022/09/23 03:51:36;;;;;;;1.73;1.10;;;;;;;;;;5005254;28;20282;-51
2022/09/23 03:54:09;;;;;;;1.30;1.17;;;;;;;;;;5027145;28;20208;-55
2022/09/23 03:56:36;;;;;;;2.10;1.27;;;;;;;;;;5023101;28;20457;-53
2022/09/23 03:59:02;;;;;;;1.23;1.10;;;;;;;;;;5026670;28;20230;-56
2022/09/23 04:01:29;;;;;;;1.30;1.20;;;;;;;;;;5026751;28;20202;-56
2022/09/23 04:03:55;;;;;;;1.40;1.00;;;;;;;;;;5026713;28;20918;-52
2022/09/23 04:06:21;;;;;;;1.93;1.50;;;;;;;;;;5024646;28;20215;-56
2022/09/23 04:08:48;;;;;;;1.77;1.30;;;;;;;;;;5027518;28;20306;-56
2022/09/23 04:11:14;;;;;;;1.20;1.07;;;;;;;;;;5026573;28;20282;-56
2022/09/23 04:13:40;;;;;;;1.80;1.17;;;;;;;;;;5023872;28;20200;-55
2022/09/23 04:16:07;;;;;;;1.63;1.13;;;;;;;;;;5026583;28;20298;-52
2022/09/23 04:18:34;;;;;;;1.07;0.90;;;;;;;;;;5025566;28;20191;-55
2022/09/23 04:21:00;;;;;;;1.30;1.20;;;;;;;;;;5023397;28;20287;-55
2022/09/23 04:23:27;;;;;;;1.27;1.10;;;;;;;;;;5022222;28;20283;-55
2022/09/23 04:25:53;;;;;;;1.97;1.33;;;;;;;;;;5023043;28;20281;-56
2022/09/23 04:28:20;;;;;;;1.60;1.33;;;;;;;;;;5027122;28;20694;-55
2022/09/23 04:30:47;;;;;;;1.53;1.40;;;;;;;;;;5023763;28;20286;-57
2022/09/23 04:33:15;;;;;;;3.00;1.93;;;;;;;;;;5024974;28;20226;-53
2022/09/23 04:35:44;;;;;;;2.13;1.83;;;;;;;;;;5022902;28;20315;-53
2022/09/23 04:38:11;;;;;;;1.83;1.50;;;;;;;;;;5023127;28;20286;-56
2022/09/23 04:40:38;;;;;;;1.97;1.57;;;;;;;;;;5014261;28;20258;-54
2022/09/23 04:43:04;;;;;;;2.10;1.40;;;;;;;;;;5027973;28;20195;-56
2022/09/23 04:45:30;;;;;;;1.97;1.50;;;;;;;;;;5024336;28;20215;-55
2022/09/23 04:47:57;;;;;;;3.03;1.40;;;;;;;;;;5020902;28;20227;-56
2022/09/23 04:50:24;;;;;;;1.77;1.50;;;;;;;;;;5009396;28;20202;-55
2022/09/23 04:52:51;;;;;;;2.50;1.53;;;;;;;;;;5024545;28;20231;-55
2022/09/23 04:55:18;;;;;;;1.33;1.10;;;;;;;;;;5024446;28;20311;-54
2022/09/23 04:57:45;;;;;;;1.67;1.20;;;;;;;;;;5020321;28;20290;-54
2022/09/23 05:00:14;;;;;;;1.77;1.53;;;;;;;;;;5025909;28;20203;-56
2022/09/23 05:02:45;;;;;;;2.33;1.70;;;;;;;;;;5021945;28;20279;-53
2022/09/23 05:05:12;;;;;;;1.50;1.40;;;;;;;;;;5023998;28;20219;-56
2022/09/23 05:07:39;;;;;;;1.20;1.10;;;;;;;;;;5022323;28;20287;-54
2022/09/23 05:10:06;;;;;;;1.27;1.17;;;;;;;;;;5024190;28;20318;-56
2022/09/23 05:12:32;;;;;;;1.23;1.10;;;;;;;;;;5004071;28;20214;-56
2022/09/23 05:14:59;;;;;;;1.20;1.03;;;;;;;;;;5026206;28;20291;-54
2022/09/23 05:17:25;;;;;;;1.23;0.90;;;;;;;;;;5026121;28;20286;-55
2022/09/23 05:19:52;;;;;;;1.40;1.10;;;;;;;;;;5025015;28;20680;-56
2022/09/23 05:22:18;;;;;;;0.83;0.83;;;;;;;;;;5024160;28;20287;-56
2022/09/23 05:24:44;;;;;;;1.00;0.90;;;;;;;;;;5023173;28;20347;-54
2022/09/23 05:27:11;;;;;;;1.27;1.00;;;;;;;;;;5027512;28;20755;-55
2022/09/23 05:29:38;;;;;;;1.87;0.90;;;;;;;;;;5023029;28;20563;-55
2022/09/23 05:32:04;;;;;;;1.60;1.27;;;;;;;;;;5025417;28;20286;-55
2022/09/23 05:34:31;;;;;;;1.50;1.20;;;;;;;;;;5028526;28;20241;-56
2022/09/23 05:36:57;;;;;;;1.73;1.60;;;;;;;;;;5030481;28;20243;-55
2022/09/23 05:39:23;;;;;;;3.20;1.43;;;;;;;;;;5027390;28;20248;-53
2022/09/23 05:41:50;;;;;;;3.47;2.00;;;;;;;;;;5026957;28;20272;-56
2022/09/23 05:44:16;;;;;;;2.00;1.77;;;;;;;;;;5029758;28;20665;-56
2022/09/23 05:46:42;;;;;;;2.47;1.90;;;;;;;;;;5028414;28;20227;-55
2022/09/23 05:49:09;;;;;;;2.63;2.37;;;;;;;;;;5028426;28;20718;-55
2022/09/23 05:51:35;;;;;;;4.03;2.50;;;;;;;;;;5025669;28;20200;-56
2022/09/23 05:54:03;;;;;;;3.90;2.40;;;;;;;;;;5027648;28;20286;-56
2022/09/23 05:56:31;;;;;;;3.93;2.40;;;;;;;;;;5025358;28;20578;-54
2022/09/23 05:58:59;;;;;;;5.30;2.53;;;;;;;;;;5025856;28;20618;-56
2022/09/23 06:01:27;;;;;;;5.20;2.90;;;;;;;;;;5027000;28;20892;-53
2022/09/23 06:03:55;;;;;;;5.53;2.40;;;;;;;;;;5021514;28;21837;-55
2022/09/23 06:06:33;;;;;;;4.47;2.10;;;;;;;;;;5023768;28;20306;-56
2022/09/23 06:09:00;;;;;;;2.83;2.13;;;;;;;;;;5010030;28;20308;-56
2022/09/23 06:11:29;;;;;;;3.57;2.50;;;;;;;;;;5022940;28;20230;-56
2022/09/23 06:13:59;;;;;;;3.47;2.50;;;;;;;;;;5006392;28;20981;-56
2022/09/23 06:16:27;;;;;;;3.30;2.37;;;;;;;;;;5025151;28;20257;-56
2022/09/23 06:18:53;;;;;;;3.57;2.00;;;;;;;;;;5009998;28;20237;-55
2022/09/23 06:21:20;;;;;;;4.27;2.37;;;;;;;;;;5028625;28;20290;-54
2022/09/23 06:23:46;;;;;;;3.00;1.70;;;;;;;;;;5029270;28;20203;-57
2022/09/23 06:26:14;;;;;;;2.67;1.80;;;;;;;;;;5025476;28;20303;-55
2022/09/23 06:28:42;;;;;;;2.77;1.83;;;;;;;;;;5027969;28;20300;-56
2022/09/23 06:31:12;;;;;;;3.00;2.00;;;;;;;;;;5027585;28;20286;-56
2022/09/23 06:33:40;;;;;;;2.00;1.80;;;;;;;;;;5024177;28;20252;-56
2022/09/23 06:36:07;;;;;;;3.10;2.10;;;;;;;;;;5026649;28;20662;-54
2022/09/23 06:38:36;;;;;;;2.37;2.00;;;;;;;;;;5025275;28;20290;-56
2022/09/23 06:41:03;;;;;;;5.70;2.30;;;;;;;;;;5025767;28;20282;-50
2022/09/23 06:43:29;;;;;;;2.43;1.90;;;;;;;;;;5028228;28;20203;-54
2022/09/23 06:45:58;;;;;;;2.67;2.17;;;;;;;;;;5026835;28;20959;-54
2022/09/23 06:48:25;;;;;;;3.00;2.00;;;;;;;;;;5027319;28;20307;-55
2022/09/23 06:50:52;;;;;;;2.97;2.30;;;;;;;;;;5027819;28;20196;-56
2022/09/23 06:53:22;;;;;;;2.10;1.73;;;;;;;;;;5027315;28;20290;-55
2022/09/23 06:56:01;;;;;;;3.60;1.90;;;;;;;;;;5028934;28;20784;-56
2022/09/23 06:58:28;;;;;;;2.80;2.40;;;;;;;;;;5026403;28;20195;-55
2022/09/23 07:01:00;;;;;;;2.40;2.20;;;;;;;;;;5025404;28;20200;-56
2022/09/23 07:03:26;;;;;;;7.93;3.60;;;;;;;;;;5025302;28;20200;-55
2022/09/23 07:05:54;;;;;;;7.77;3.17;;;;;;;;;;5023212;28;20722;-56
2022/09/23 07:08:22;;;;;;;6.77;3.27;;;;;;;;;;5026975;28;20310;-56
2022/09/23 07:10:59;;;;;;;7.73;3.10;;;;;;;;;;5025280;28;20282;-55
2022/09/23 07:13:27;;;;;;;6.63;3.27;;;;;;;;;;5007904;28;20241;-54
2022/09/23 07:15:57;;;;;;;2.97;2.63;;;;;;;;;;5024816;28;20305;-53
2022/09/23 07:18:25;;;;;;;3.87;2.13;;;;;;;;;;5025763;28;20253;-55
2022/09/23 07:20:52;;;;;;;4.20;2.40;;;;;;;;;;5003134;28;20275;-53
2022/09/23 07:23:18;;;;;;;3.87;2.47;;;;;;;;;;5010839;28;20279;-52
2022/09/23 07:25:45;;;;;;;3.77;2.07;;;;;;;;;;5029094;28;20663;-52
2022/09/23 07:28:12;;;;;;;3.77;2.23;;;;;;;;;;5022397;28;20916;-52
2022/09/23 07:30:39;;;;;;;3.20;2.40;;;;;;;;;;5019281;28;20548;-54
2022/09/23 07:33:13;;;;;;;5.50;2.17;;;;;;;;;;5024551;28;20198;-51
2022/09/23 07:35:56;;;;;;;3.77;2.00;;;;;;;;;;5013235;28;20234;-55
2022/09/23 07:38:25;;;;;;;2.77;2.30;;;;;;;;;;5026847;28;20287;-56
2022/09/23 07:40:51;;;;;;;3.17;2.20;;;;;;;;;;5025189;28;20657;-55
2022/09/23 07:43:18;;;;;;;3.83;2.23;;;;;;;;;;5027777;28;20214;-52
2022/09/23 07:45:45;;;;;;;3.90;2.37;;;;;;;;;;5024444;28;20727;-52
2022/09/23 07:48:12;;;;;;;2.47;1.73;;;;;;;;;;5021289;28;20302;-54
2022/09/23 07:50:39;;;;;;;2.20;1.80;;;;;;;;;;5024528;28;20242;-54
2022/09/23 07:53:07;;;;;;;3.20;1.90;;;;;;;;;;5025257;28;20702;-52
2022/09/23 07:55:33;;;;;;;2.70;1.90;;;;;;;;;;5024026;28;20314;-53
2022/09/23 07:58:00;;;;;;;4.00;2.10;;;;;;;;;;5025285;28;20203;-52
2022/09/23 08:00:26;;;;;;;3.00;1.83;;;;;;;;;;5026110;28;20283;-52
2022/09/23 08:02:52;;;;;;;3.25;2.00;;;;;;;;;;5025198;28;20246;-52
2022/09/23 08:05:19;;;;;;;3.08;2.00;;;;;;;;;;5026449;28;20230;-54
2022/09/23 08:07:47;;;;;;;1.85;1.50;;;;;;;;;;5024673;28;20290;-55
2022/09/23 08:10:17;;;;;;;2.80;1.70;;;;;;;;;;5027632;28;20250;-54
2022/09/23 08:12:45;;;;;;;3.67;2.03;;;;;;;;;;5023606;28;20258;-54
2022/09/23 08:15:11;;;;;;;2.50;1.80;;;;;;;;;;5026473;28;20219;-53
2022/09/23 08:17:37;;;;;;;2.88;2.22;;;;;;;;;;5025627;28;20192;-54
2022/09/23 08:20:04;;;;;;;3.20;2.20;;;;;;;;;;5028417;28;20735;-52
2022/09/23 08:22:31;;;;;;;4.00;1.90;;;;;;;;;;5025314;28;20298;-53
2022/09/23 08:24:57;;;;;;;2.40;1.55;;;;;;;;;;5024326;28;20298;-52
2022/09/23 08:27:26;;;;;;;3.42;1.88;;;;;;;;;;5024807;28;20282;-55
2022/09/23 08:29:52;;;;;;;4.65;1.92;;;;;;;;;;5005503;28;20310;-54
2022/09/23 08:32:19;;;;;;;2.83;2.17;;;;;;;;;;5022812;28;20651;-54
2022/09/23 08:34:45;;;;;;;4.63;3.50;;;;;;;;;;5025072;28;20231;-53
2022/09/23 08:37:11;;;;;;;2.95;2.63;;;;;;;;;;5024822;28;20231;-54
2022/09/23 08:39:38;;;;;;;2.58;1.73;;;;;;;;;;5017608;28;20224;-51
2022/09/23 08:42:17;;;;;;;4.53;3.08;;;;;;;;;;5020575;28;20219;-53
2022/09/23 08:44:48;;;;;;;4.93;2.40;;;;;;;;;;5008773;28;20287;-53
2022/09/23 08:47:15;;;;;;;4.28;2.95;;;;;;;;;;5003641;28;20678;-54
2022/09/23 08:50:10;;;;;;;3.65;3.25;;;;;;;;;;5002557;28;20229;-55
2022/09/23 08:52:50;;;;;;;4.57;2.40;;;;;;;;;;5003915;28;20697;-53
2022/09/23 08:55:18;;;;;;;3.97;1.98;;;;;;;;;;5023855;28;20608;-53
2022/09/23 08:58:17;;;;;;;5.93;2.28;;;;;;;;;;5023921;28;20282;-55
2022/09/23 09:01:10;;;;;;;5.38;1.90;;;;;;;;;;5020762;28;20219;-52
2022/09/23 09:03:45;;;;;;;2.38;1.80;;;;;;;;;;5024676;28;20195;-52
2022/09/23 09:06:16;;;;;;;3.55;1.90;;;;;;;;;;5008392;28;20310;-53
2022/09/23 09:08:44;;;;;;;3.47;1.45;;;;;;;;;;5007896;28;20278;-53
2022/09/23 09:11:12;;;;;;;2.90;1.67;;;;;;;;;;5024404;28;20287;-54
2022/09/23 09:13:58;;;;;;;4.13;1.60;;;;;;;;;;5002448;28;20286;-53
2022/09/23 09:16:45;;;;;;;1.60;1.42;;;;;;;;;;5022241;28;20223;-53
2022/09/23 09:19:51;;;;;;;4.05;1.80;;;;;;;;;;5024848;28;20553;-53
2022/09/23 09:22:23;;;;;;;4.20;1.80;;;;;;;;;;5022915;28;20249;-54
2022/09/23 09:24:52;;;;;;;4.68;1.98;;;;;;;;;;5025054;28;20206;-55
2022/09/23 09:27:18;;;;;;;6.07;1.75;;;;;;;;;;5008523;28;20290;-53
2022/09/23 09:29:47;;;;;;;10.23;1.70;;;;;;;;;;5027006;28;20310;-53
2022/09/23 09:32:23;;;;;;;2.47;1.55;;;;;;;;;;5027007;28;20675;-52
2022/09/23 09:34:54;;;;;;;2.38;1.70;;;;;;;;;;5009749;28;20293;-52
2022/09/23 09:37:45;;;;;;;2.30;1.67;;;;;;;;;;5026800;28;20283;-52
2022/09/23 09:40:13;;;;;;;3.10;1.63;;;;;;;;;;5007961;28;20286;-52
2022/09/23 09:42:41;;;;;;;1.63;1.50;;;;;;;;;;5021981;28;20286;-52
2022/09/23 09:45:18;;;;;;;4.10;1.52;;;;;;;;;;5021989;28;20314;-51
2022/09/23 09:47:50;;;;;;;2.00;1.65;;;;;;;;;;5021661;28;20227;-53
2022/09/23 09:50:50;;;;;;;2.65;1.75;;;;;;;;;;5024559;28;20219;-53
2022/09/23 09:53:29;;;;;;;2.67;1.55;;;;;;;;;;5020930;28;20620;-53
2022/09/23 09:56:07;;;;;;;3.15;1.77;;;;;;;;;;5024495;28;20254;-52
2022/09/23 09:58:39;;;;;;;4.00;1.75;;;;;;;;;;5022118;28;20290;-51
2022/09/23 10:01:07;;;;;;;1.80;1.48;;;;;;;;;;5019066;28;20298;-52
2022/09/23 10:03:38;;;;;;;3.83;1.67;;;;;;;;;;5020490;28;20204;-53
2022/09/23 10:06:20;;;;;;;2.38;1.50;;;;;;;;;;5022647;28;20315;-50
2022/09/23 10:08:48;;;;;;;2.53;1.67;;;;;;;;;;5023890;28;20358;-52
2022/09/23 10:11:16;;;;;;;6.15;1.70;;;;;;;;;;5024029;28;20282;-53
2022/09/23 10:14:16;;;;;;;1.70;1.50;;;;;;;;;;5026542;28;20298;-51
2022/09/23 10:16:43;;;;;;;1.73;1.40;;;;;;;;;;5021299;28;20239;-53
2022/09/23 10:19:13;;;;;;;1.60;1.50;;;;;;;;;;5005634;28;20250;-53
2022/09/23 10:21:41;;;;;;;1.52;1.40;;;;;;;;;;5028157;28;20293;-53
2022/09/23 10:24:20;;;;;;;1.67;1.33;;;;;;;;;;5010265;28;20370;-51
2022/09/23 10:27:00;;;;;;;2.35;1.60;;;;;;;;;;5007446;28;20215;-52
2022/09/23 10:29:32;;;;;;;4.70;1.60;;;;;;;;;;5028149;28;20314;-53
2022/09/23 10:32:21;;;;;;;1.20;1.10;;;;;;;;;;5030248;28;20195;-56
2022/09/23 10:34:51;;;;;;;2.38;1.50;;;;;;;;;;5011355;28;20307;-51
2022/09/23 10:37:26;;;;;;;1.65;1.55;;;;;;;;;;5009935;28;20624;-53
2022/09/23 10:49:01;;;;;;;2.20;1.60;;;;;;;;;;5023601;28;20204;-52
2022/09/23 10:51:38;;;;;;;1.65;1.42;;;;;;;;;;5010221;28;20366;-52
2022/09/23 10:54:19;;;;;;;1.85;1.45;;;;;;;;;;5008033;28;20282;-51
2022/09/23 10:56:50;;;;;;;2.17;1.70;;;;;;;;;;5025785;28;20289;-52
2022/09/23 10:59:47;;;;;;;1.88;1.50;;;;;;;;;;5008777;28;20616;-51
2022/09/23 11:02:23;;;;;;;2.22;1.48;;;;;;;;;;5009649;28;20282;-53
2022/09/23 11:05:15;;;;;;;2.00;1.65;;;;;;;;;;5025429;28;20199;-54
2022/09/23 11:07:59;;;;;;;1.63;1.52;;;;;;;;;;5009445;28;20269;-53
2022/09/23 11:11:10;;;;;;;2.88;1.60;;;;;;;;;;5025343;28;20314;-55
2022/09/23 11:13:48;;;;;;;4.82;1.58;;;;;;;;;;5013109;28;20199;-55
2022/09/23 11:16:46;;;;;;;2.05;1.38;;;;;;;;;;5010095;28;20302;-57
2022/09/23 11:19:26;;;;;;;2.85;1.60;;;;;;;;;;5027373;28;20196;-57
2022/09/23 11:22:36;;;;;;;1.75;1.33;;;;;;;;;;5008492;28;20278;-56
2022/09/23 11:25:30;;;;;;;2.25;1.50;;;;;;;;;;5025758;28;20227;-57
2022/09/23 11:28:16;;;;;;;2.28;1.38;;;;;;;;;;5024879;28;20237;-57
2022/09/23 11:31:08;;;;;;;3.42;1.50;;;;;;;;;;5023474;28;20222;-56
2022/09/23 11:33:41;;;;;;;3.22;1.50;;;;;;;;;;5023973;28;21507;-57
2022/09/23 11:36:11;;;;;;;2.28;1.40;;;;;;;;;;5029658;28;20904;-55
2022/09/23 11:38:42;;;;;;;2.50;1.42;;;;;;;;;;5008629;28;20282;-58
2022/09/23 11:41:29;;;;;;;4.03;1.73;;;;;;;;;;5007622;28;20635;-56
2022/09/23 11:44:12;;;;;;;2.25;1.45;;;;;;;;;;5027186;28;20338;-55
2022/09/23 11:46:45;;;;;;;1.75;1.50;;;;;;;;;;5022296;28;20285;-56
2022/09/23 11:49:29;;;;;;;2.22;1.80;;;;;;;;;;5006349;28;20295;-56
2022/09/23 11:52:02;;;;;;;3.15;1.50;;;;;;;;;;5010271;28;20301;-55
2022/09/23 11:54:52;;;;;;;2.13;1.55;;;;;;;;;;5006918;28;20675;-53
2022/09/23 11:57:30;;;;;;;3.00;1.50;;;;;;;;;;5026721;28;20608;-56
2022/09/23 12:00:17;;;;;;;1.63;1.40;;;;;;;;;;5026253;28;20196;-53
2022/09/23 12:03:18;;;;;;;2.03;1.70;;;;;;;;;;5006009;28;20272;-56
2022/09/23 12:05:47;;;;;;;1.70;1.35;;;;;;;;;;5023401;28;20306;-54
2022/09/23 12:08:28;;;;;;;4.05;1.45;;;;;;;;;;5025921;28;20199;-51
2022/09/23 12:11:07;;;;;;;1.73;1.40;;;;;;;;;;5026013;28;20751;-52
2022/09/23 12:14:01;;;;;;;3.15;1.70;;;;;;;;;;5026217;28;20205;-55
2022/09/23 12:16:55;;;;;;;2.22;1.40;;;;;;;;;;5024728;28;20311;-51
2022/09/23 12:19:55;;;;;;;2.15;1.70;;;;;;;;;;5027339;28;20690;-51
2022/09/23 12:22:40;;;;;;;1.45;1.35;;;;;;;;;;5008259;28;20203;-54
2022/09/23 12:25:19;;;;;;;1.80;1.50;;;;;;;;;;5026670;28;20309;-51
2022/09/23 12:27:49;;;;;;;2.42;1.75;;;;;;;;;;5022160;28;20638;-55
2022/09/23 12:30:18;;;;;;;2.08;1.50;;;;;;;;;;5026120;28;20306;-54
2022/09/23 12:32:45;;;;;;;2.30;1.70;;;;;;;;;;5004291;28;20199;-55
2022/09/23 12:35:46;;;;;;;1.65;1.38;;;;;;;;;;5010057;28;20710;-53
2022/09/23 12:38:19;;;;;;;2.67;1.40;;;;;;;;;;5028087;28;20281;-54
2022/09/23 12:40:45;;;;;;;2.05;1.52;;;;;;;;;;5007216;28;20345;-55
2022/09/23 12:43:29;;;;;;;3.20;2.17;;;;;;;;;;5025901;28;20676;-54
2022/09/23 12:46:26;;;;;;;1.73;1.63;;;;;;;;;;5023263;28;20277;-52
2022/09/23 12:48:59;;;;;;;2.38;1.60;;;;;;;;;;5008886;28;20659;-53
2022/09/23 12:51:30;;;;;;;2.97;1.60;;;;;;;;;;5027689;28;20219;-51
2022/09/23 12:54:00;;;;;;;1.80;1.30;;;;;;;;;;5008304;28;20286;-52
2022/09/23 12:56:55;;;;;;;2.55;1.60;;;;;;;;;;5024943;28;20226;-52
2022/09/23 12:59:27;;;;;;;2.70;1.35;;;;;;;;;;5008866;28;20701;-53
2022/09/23 13:01:54;;;;;;;2.65;1.90;;;;;;;;;;5026173;28;20646;-52
2022/09/23 13:07:30;;;;;;;1.67;1.45;;;;;;;;;;5024056;28;20238;-52
2022/09/23 13:10:05;;;;;;;2.72;1.50;;;;;;;;;;5022851;28;20229;-52
2022/09/23 13:12:34;;;;;;;1.77;1.65;;;;;;;;;;5024306;28;20749;-52
2022/09/23 13:15:05;;;;;;;4.22;2.03;;;;;;;;;;5003228;28;20195;-52
2022/09/23 13:17:33;;;;;;;3.03;1.50;;;;;;;;;;5026050;28;20289;-54
2022/09/23 13:20:19;;;;;;;1.67;1.30;;;;;;;;;;5024090;28;20648;-52
2022/09/23 13:22:50;;;;;;;2.67;1.70;;;;;;;;;;5009416;28;20681;-53
2022/09/23 13:25:27;;;;;;;2.28;1.90;;;;;;;;;;5021865;28;20215;-54
2022/09/23 13:27:55;;;;;;;2.88;1.40;;;;;;;;;;5005737;28;20282;-52
2022/09/23 13:30:24;;;;;;;2.30;1.67;;;;;;;;;;5008847;28;20211;-52
2022/09/23 13:33:18;;;;;;;2.15;1.45;;;;;;;;;;5026287;28;20237;-53
2022/09/23 13:35:49;;;;;;;2.60;1.65;;;;;;;;;;5018736;28;20314;-52
2022/09/23 13:38:19;;;;;;;1.85;1.55;;;;;;;;;;4993251;28;20734;-54
2022/09/23 13:40:46;;;;;;;1.98;1.70;;;;;;;;;;5022612;28;20282;-54
2022/09/23 13:43:19;;;;;;;1.60;1.50;;;;;;;;;;5025363;28;20200;-52
2022/09/23 13:45:46;;;;;;;1.63;1.40;;;;;;;;;;5023160;28;20322;-54
2022/09/23 13:48:16;;;;;;;2.97;2.15;;;;;;;;;;5025751;28;20215;-53
2022/09/23 13:50:48;;;;;;;1.85;1.55;;;;;;;;;;5028074;28;20303;-55
2022/09/23 13:53:28;;;;;;;2.33;2.13;;;;;;;;;;5029353;28;20286;-55
2022/09/23 13:56:04;;;;;;;2.60;1.67;;;;;;;;;;5029041;28;20311;-52
2022/09/23 13:58:31;;;;;;;2.33;1.95;;;;;;;;;;5028227;28;20617;-56
2022/09/23 14:00:58;;;;;;;1.98;1.60;;;;;;;;;;5027187;28;20630;-55
2022/09/23 14:03:32;;;;;;;3.58;1.58;;;;;;;;;;5011526;28;20191;-54
2022/09/23 14:06:10;;;;;;;2.03;1.60;;;;;;;;;;5012785;28;20223;-54
2022/09/23 14:08:45;;;;;;;2.35;1.55;;;;;;;;;;5008882;28;20290;-54
2022/09/23 14:11:16;;;;;;;2.10;1.63;;;;;;;;;;5012760;28;20310;-53
2022/09/23 14:13:43;;;;;;;2.90;1.90;;;;;;;;;;5004138;28;20292;-54
2022/09/23 14:16:13;;;;;;;2.17;1.60;;;;;;;;;;5027322;28;20325;-50
2022/09/23 14:18:48;;;;;;;2.10;1.60;;;;;;;;;;5023834;28;20200;-52
2022/09/23 14:21:37;;;;;;;2.42;1.55;;;;;;;;;;5026804;28;20635;-54
2022/09/23 14:24:09;;;;;;;1.77;1.50;;;;;;;;;;5028856;28;20206;-52
2022/09/23 14:26:36;;;;;;;2.33;1.60;;;;;;;;;;5027429;28;20238;-52
2022/09/23 14:29:03;;;;;;;2.20;1.40;;;;;;;;;;5007399;28;20223;-54
2022/09/23 14:31:31;;;;;;;1.60;1.50;;;;;;;;;;5005463;28;20774;-52
2022/09/23 14:33:58;;;;;;;2.58;1.70;;;;;;;;;;5026611;28;20199;-57
2022/09/23 14:39:10;;;;;;;1.60;1.40;;;;;;;;;;5027031;28;20342;-54
2022/09/23 14:41:39;;;;;;;2.33;1.52;;;;;;;;;;5022696;28;20295;-53
2022/09/23 14:44:12;;;;;;;1.63;1.38;;;;;;;;;;5024862;28;20249;-52
2022/09/23 14:46:39;;;;;;;1.55;1.20;;;;;;;;;;4990677;28;20737;-53
2022/09/23 14:49:07;;;;;;;1.50;1.38;;;;;;;;;;5021820;28;20315;-56
2022/09/23 14:51:49;;;;;;;1.55;1.40;;;;;;;;;;5026013;28;20220;-55
2022/09/23 14:54:34;;;;;;;1.60;1.20;;;;;;;;;;5023882;28;20346;-56
2022/09/23 14:57:04;;;;;;;1.83;1.30;;;;;;;;;;5026238;28;20298;-55
2022/09/23 14:59:34;;;;;;;2.05;1.60;;;;;;;;;;5008247;28;20283;-53
2022/09/23 15:02:01;;;;;;;1.63;1.50;;;;;;;;;;5028983;28;20231;-54
2022/09/23 15:04:29;;;;;;;1.65;1.55;;;;;;;;;;5027914;28;20784;-54
2022/09/23 15:06:59;;;;;;;1.52;1.40;;;;;;;;;;5027022;28;20224;-53
2022/09/23 15:09:37;;;;;;;4.28;1.80;;;;;;;;;;5001386;28;20283;-53
2022/09/23 15:12:06;;;;;;;1.83;1.40;;;;;;;;;;5026081;28;20681;-52
2022/09/23 15:14:35;;;;;;;1.73;1.20;;;;;;;;;;5010548;28;20282;-52
2022/09/23 15:17:14;;;;;;;1.98;1.40;;;;;;;;;;5028600;28;20211;-53
2022/09/23 15:19:41;;;;;;;1.83;1.33;;;;;;;;;;5028453;28;20253;-54
2022/09/23 15:22:08;;;;;;;1.90;1.35;;;;;;;;;;5028534;28;20223;-51
2022/09/23 15:24:35;;;;;;;2.10;1.60;;;;;;;;;;5011672;28;20228;-53
2022/09/23 15:27:09;;;;;;;1.60;1.50;;;;;;;;;;5026003;28;20302;-54
2022/09/23 15:29:35;;;;;;;1.63;1.25;;;;;;;;;;5028145;28;20203;-52
2022/09/23 15:32:02;;;;;;;2.47;1.30;;;;;;;;;;5029149;28;20306;-55
2022/09/23 15:34:29;;;;;;;1.60;1.40;;;;;;;;;;5011507;28;20199;-54
2022/09/23 15:36:56;;;;;;;1.38;1.13;;;;;;;;;;5027086;28;21031;-53
2022/09/23 15:39:22;;;;;;;1.20;1.10;;;;;;;;;;5011404;28;20676;-54